Time;durP1;ratioP1;P1;durP2;ratioP2;P2;SDS_P1;SDS_P2;PMS_P1;PMS_P2;Temp;Humidity;BMP_temperature;BMP_pressure;BME280_temperature;BME280_humidity;BME280_pressure;Samples;Min_cycle;Max_cycle;Signal;HPM_P1;HPM_P2
2022/01/14 00:02:11;;;;;;;33.53;7.43;;;;;;;7.69;95.62;101293.81;4952941;28;20480;-80
2022/01/14 00:04:37;;;;;;;53.97;9.68;;;;;;;7.65;95.27;101270.94;4951550;28;20031;-80
2022/01/14 00:07:02;;;;;;;60.95;10.95;;;;;;;7.62;95.51;101265.16;4954161;28;20035;-81
2022/01/14 00:09:28;;;;;;;51.95;9.43;;;;;;;7.62;95.35;101238.03;4967171;28;20031;-80
2022/01/14 00:11:57;;;;;;;45.83;9.85;;;;;;;7.60;95.10;101234.72;4947643;28;20022;-80
2022/01/14 00:14:41;;;;;;;59.22;10.02;;;;;;;7.59;95.34;101255.63;4955556;28;20034;-77
2022/01/14 00:17:11;;;;;;;51.40;10.43;;;;;;;7.59;95.18;101195.09;4972739;28;20027;-79
2022/01/14 00:19:37;;;;;;;48.08;9.45;;;;;;;7.59;95.29;101184.25;4961488;28;20026;-77
2022/01/14 00:22:08;;;;;;;63.92;13.13;;;;;;;7.59;95.10;101182.34;4970815;28;20073;-80
2022/01/14 00:32:59;;;;;;;70.60;13.65;;;;;;;7.61;94.96;101155.81;4944734;28;20056;-79
2022/01/14 00:35:24;;;;;;;35.13;8.88;;;;;;;7.63;95.05;101215.25;4972252;28;20054;-80
2022/01/14 00:37:50;;;;;;;35.63;8.40;;;;;;;7.63;95.03;101188.94;4953766;28;20023;-80
2022/01/14 00:40:15;;;;;;;41.10;10.38;;;;;;;7.64;94.92;101187.03;4940275;28;20023;-80
2022/01/14 00:42:41;;;;;;;70.93;15.05;;;;;;;7.62;95.28;101194.63;4970299;28;20033;-80
2022/01/14 00:45:07;;;;;;;53.28;11.00;;;;;;;7.65;95.10;101156.13;4954606;28;20027;-79
2022/01/14 00:47:34;;;;;;;49.20;12.98;;;;;;;7.64;94.96;101192.47;4952847;28;20027;-80
2022/01/14 00:50:00;;;;;;;43.67;10.30;;;;;;;7.65;95.27;101194.13;4968001;28;20499;-82
2022/01/14 00:52:25;;;;;;;56.90;13.35;;;;;;;7.66;95.28;101220.19;4973772;28;20027;-80
2022/01/14 00:54:51;;;;;;;62.53;13.85;;;;;;;7.64;94.83;101155.31;4970213;28;20027;-80
2022/01/14 00:57:28;;;;;;;69.50;16.08;;;;;;;7.60;95.06;101170.41;4972588;28;20037;-79
2022/01/14 00:59:53;;;;;;;57.15;10.90;;;;;;;7.61;94.81;101168.53;4969571;28;20038;-79
2022/01/14 01:02:18;;;;;;;45.83;11.82;;;;;;;7.59;94.90;101171.50;4973217;28;20472;-80
2022/01/14 01:04:44;;;;;;;34.22;9.27;;;;;;;7.65;95.08;101177.84;4960140;28;20031;-80
2022/01/14 01:07:10;;;;;;;61.35;14.63;;;;;;;7.64;95.11;101181.59;4972739;28;20031;-80
2022/01/14 01:09:37;;;;;;;64.57;14.77;;;;;;;7.60;95.10;101170.41;4971384;28;20411;-79
2022/01/14 01:12:11;;;;;;;58.75;13.82;;;;;;;7.56;94.89;101235.22;4956508;28;20373;-80
2022/01/14 01:14:44;;;;;;;59.25;12.38;;;;;;;7.57;95.21;101171.72;4972609;28;20109;-79
2022/01/14 01:17:09;;;;;;;54.33;12.13;;;;;;;7.57;95.25;101193.44;4954261;28;20435;-80
2022/01/14 01:19:34;;;;;;;68.72;15.38;;;;;;;7.53;94.90;101196.91;4955653;28;20023;-79
2022/01/14 01:22:00;;;;;;;62.35;14.13;;;;;;;7.59;95.18;101195.09;4971604;28;20113;-79
2022/01/14 01:24:25;;;;;;;72.40;14.23;;;;;;;7.61;95.41;101211.94;4965608;28;20027;-79
2022/01/14 01:26:52;;;;;;;49.42;10.52;;;;;;;7.62;95.17;101197.31;4970485;28;20037;-80
2022/01/14 01:31:48;;;;;;;60.95;9.90;;;;;;;7.67;95.25;101235.41;4973421;28;20027;-79
2022/01/14 01:34:15;;;;;;;48.35;10.15;;;;;;;7.68;94.95;101204.50;4955127;28;20046;-79
2022/01/14 01:36:42;;;;;;;41.33;10.05;;;;;;;7.61;94.91;101209.22;4952339;28;20029;-78
2022/01/14 01:39:10;;;;;;;60.65;12.20;;;;;;;7.62;95.35;101205.47;4954902;28;20027;-80
2022/01/14 01:41:37;;;;;;;45.65;9.63;;;;;;;7.61;95.41;101201.09;4955632;28;20066;-79
2022/01/14 01:44:06;;;;;;;56.33;11.02;;;;;;;7.56;95.33;101239.81;4970693;28;20434;-79
2022/01/14 01:46:31;;;;;;;47.60;9.88;;;;;;;7.56;95.34;101218.13;4971319;28;20030;-79
2022/01/14 01:48:56;;;;;;;48.25;10.38;;;;;;;7.59;95.69;101181.53;4954194;28;20047;-80
2022/01/14 01:51:22;;;;;;;52.25;9.82;;;;;;;7.57;95.56;101207.00;4969340;28;20383;-79
2022/01/14 01:53:47;;;;;;;44.03;9.35;;;;;;;7.56;95.42;101191.00;4971662;28;20034;-80
2022/01/14 01:56:13;;;;;;;54.10;10.63;;;;;;;7.52;95.72;101197.94;4971392;28;20027;-79
2022/01/14 01:58:39;;;;;;;35.33;8.48;;;;;;;7.53;95.55;101230.28;4970675;28;20031;-80
2022/01/14 02:01:05;;;;;;;46.63;8.57;;;;;;;7.54;95.92;101221.06;4958304;28;20046;-80
2022/01/14 02:03:34;;;;;;;41.63;10.02;;;;;;;7.57;95.82;101195.34;4974197;28;20039;-79
2022/01/14 02:06:01;;;;;;;34.08;9.05;;;;;;;7.59;95.60;101173.41;4974773;28;20089;-79
2022/01/14 02:08:27;;;;;;;53.30;11.68;;;;;;;7.59;95.62;101228.50;4961056;28;20030;-79
2022/01/14 02:10:52;;;;;;;58.92;15.02;;;;;;;7.55;95.37;101203.72;4959060;28;20085;-80
2022/01/14 02:13:18;;;;;;;70.47;16.10;;;;;;;7.56;95.52;101223.53;4957543;28;20029;-79
2022/01/14 02:23:41;;;;;;;50.83;10.70;;;;;;;7.57;95.10;101219.75;4953546;28;20054;-79
2022/01/14 02:26:07;;;;;;;65.10;12.60;;;;;;;7.55;94.93;101214.56;4959941;28;20023;-79
2022/01/14 02:28:32;;;;;;;61.35;16.77;;;;;;;7.54;95.24;101221.06;4975412;28;20033;-79
2022/01/14 02:30:57;;;;;;;45.78;10.23;;;;;;;7.54;95.38;101221.06;4958440;28;20026;-79
2022/01/14 02:33:24;;;;;;;67.80;15.73;;;;;;;7.51;95.36;101251.41;4974269;28;20554;-79
2022/01/14 02:35:50;;;;;;;63.47;13.82;;;;;;;7.54;95.18;101269.91;4974718;28;20113;-80
2022/01/14 02:38:15;;;;;;;48.10;12.05;;;;;;;7.57;95.22;101285.69;4956389;28;20126;-79
2022/01/14 02:40:41;;;;;;;46.45;10.02;;;;;;;7.59;95.37;101298.22;4974419;28;20031;-79
2022/01/14 02:43:12;;;;;;;55.85;16.20;;;;;;;7.59;95.17;101314.50;4958729;28;20046;-79
2022/01/14 02:45:38;;;;;;;56.03;13.68;;;;;;;7.59;95.25;101337.03;4974776;28;20488;-81
2022/01/14 02:48:03;;;;;;;65.10;15.70;;;;;;;7.58;95.24;101243.09;4957527;28;20041;-80
2022/01/14 02:50:37;;;;;;;54.15;10.10;;;;;;;7.59;95.07;101271.09;4975105;28;20029;-80
2022/01/14 02:53:12;;;;;;;56.47;11.75;;;;;;;7.56;95.19;101256.94;4976002;28;20034;-80
2022/01/14 02:55:43;;;;;;;58.90;15.20;;;;;;;7.56;95.03;101253.41;4973548;28;20046;-79
2022/01/14 02:58:08;;;;;;;52.20;11.35;;;;;;;7.53;94.93;101221.31;4957057;28;20022;-78
2022/01/14 03:00:34;;;;;;;49.08;11.30;;;;;;;7.54;94.83;101214.81;4934705;28;20361;-79
2022/01/14 03:03:00;;;;;;;56.63;13.35;;;;;;;7.50;95.12;101241.63;4974699;28;20044;-78
2022/01/14 03:05:27;;;;;;;34.72;8.27;;;;;;;7.49;95.06;101260.84;4972412;28;20471;-79
2022/01/14 03:07:52;;;;;;;66.15;12.40;;;;;;;7.47;94.90;101255.66;4957774;28;20046;-79
2022/01/14 03:10:18;;;;;;;50.22;12.40;;;;;;;7.49;95.14;101201.97;4956023;28;20023;-79
2022/01/14 03:12:44;;;;;;;40.67;8.88;;;;;;;7.50;95.20;101214.50;4971450;28;20492;-79
2022/01/14 03:15:10;;;;;;;45.95;8.85;;;;;;;7.50;94.59;101209.06;4974324;28;20033;-79
2022/01/14 03:17:35;;;;;;;52.45;12.30;;;;;;;7.48;94.87;101260.03;4956219;28;20030;-79
2022/01/14 03:20:03;;;;;;;32.40;8.25;;;;;;;7.49;94.57;101261.66;4974543;28;20078;-79
2022/01/14 03:22:33;;;;;;;36.70;8.15;;;;;;;7.51;94.88;101243.25;4957789;28;20375;-80
2022/01/14 03:27:42;;;;;;;53.80;11.30;;;;;;;7.50;94.53;101266.03;4957683;28;20510;-79
2022/01/14 03:30:08;;;;;;;50.83;10.38;;;;;;;7.51;94.50;101269.56;4957081;28;20030;-79
2022/01/14 03:32:33;;;;;;;26.67;7.03;;;;;;;7.51;94.53;101285.84;4973719;28;20031;-79
2022/01/14 03:34:58;;;;;;;55.38;13.52;;;;;;;7.51;94.34;101313.81;4972937;28;20018;-79
2022/01/14 03:37:24;;;;;;;39.95;9.88;;;;;;;7.51;94.61;101259.53;4974858;28;20026;-79
2022/01/14 03:39:49;;;;;;;38.70;9.43;;;;;;;7.52;94.15;101250.31;4973438;28;20399;-80
2022/01/14 03:42:15;;;;;;;53.03;11.82;;;;;;;7.48;94.14;101253.78;4974609;28;20022;-79
2022/01/14 03:44:40;;;;;;;40.63;7.38;;;;;;;7.50;94.00;101214.50;4954290;28;20187;-78
2022/01/14 03:47:05;;;;;;;54.53;10.88;;;;;;;7.47;94.12;101328.91;4973963;28;20089;-80
2022/01/14 03:49:31;;;;;;;63.17;11.63;;;;;;;7.47;94.17;101262.97;4955688;28;20050;-79
2022/01/14 03:51:56;;;;;;;60.28;10.60;;;;;;;7.48;94.03;101264.63;4956771;28;20076;-79
2022/01/14 03:54:22;;;;;;;36.70;8.27;;;;;;;7.48;94.34;101202.22;4973779;28;20038;-79
2022/01/14 03:56:47;;;;;;;46.42;9.38;;;;;;;7.48;93.87;101260.03;4969676;28;20031;-79
2022/01/14 03:59:13;;;;;;;49.00;11.95;;;;;;;7.48;94.05;101235.59;4972754;28;20487;-79
2022/01/14 04:01:38;;;;;;;41.50;9.95;;;;;;;7.47;93.75;101252.94;4962201;28;20035;-79
2022/01/14 04:04:04;;;;;;;55.08;11.90;;;;;;;7.46;93.98;101267.56;4955364;28;20038;-79
2022/01/14 04:06:30;;;;;;;45.80;11.27;;;;;;;7.48;93.76;101268.16;4957219;28;20030;-79
2022/01/14 04:08:56;;;;;;;51.45;12.27;;;;;;;7.48;93.82;101268.16;4972815;28;20023;-79
2022/01/14 04:11:22;;;;;;;48.70;11.95;;;;;;;7.50;93.63;101248.91;4973947;28;20041;-78
2022/01/14 04:13:51;;;;;;;50.00;11.15;;;;;;;7.50;93.16;101279.59;4953679;29;20054;-79
2022/01/14 04:16:17;;;;;;;50.92;12.13;;;;;;;7.55;92.51;101268.81;4957754;28;20027;-79
2022/01/14 04:18:42;;;;;;;45.85;10.75;;;;;;;7.57;92.68;101296.56;4951671;29;20067;-79
2022/01/14 04:21:08;;;;;;;42.70;10.35;;;;;;;7.55;92.36;101330.41;4971944;28;20384;-79
2022/01/14 04:23:33;;;;;;;45.47;9.15;;;;;;;7.54;91.91;101264.47;4972299;28;20037;-79
2022/01/14 04:25:59;;;;;;;30.05;7.53;;;;;;;7.59;91.33;101303.66;4953013;28;20436;-78
2022/01/14 04:28:25;;;;;;;31.83;8.35;;;;;;;7.61;90.92;101274.34;4956317;28;20030;-79
2022/01/14 04:30:54;;;;;;;32.97;7.68;;;;;;;7.61;90.32;101268.94;4953078;28;20031;-79
2022/01/14 04:33:21;;;;;;;41.08;8.63;;;;;;;7.60;89.94;101278.16;4973787;28;20031;-78
2022/01/14 04:35:46;;;;;;;37.08;8.15;;;;;;;7.62;89.48;101273.31;4982621;28;20037;-78
2022/01/14 04:38:12;;;;;;;42.15;9.27;;;;;;;7.60;89.55;101295.25;4974713;28;20022;-78
2022/01/14 04:40:37;;;;;;;43.67;7.85;;;;;;;7.60;89.09;101289.00;4971867;28;20094;-78
2022/01/14 04:43:02;;;;;;;24.58;6.57;;;;;;;7.56;88.88;101346.47;4972033;28;20031;-78
2022/01/14 04:48:06;;;;;;;41.40;7.88;;;;;;;7.55;88.53;101347.50;4957367;28;20026;-78
2022/01/14 04:50:32;;;;;;;26.48;7.32;;;;;;;7.51;88.17;101375.38;4970486;28;20081;-78
2022/01/14 04:52:57;;;;;;;29.30;6.55;;;;;;;7.52;88.48;101375.13;4943703;28;20408;-78
2022/01/14 04:55:24;;;;;;;32.05;6.78;;;;;;;7.49;88.10;101370.19;4959376;28;20073;-79
2022/01/14 04:57:49;;;;;;;42.13;8.30;;;;;;;7.46;88.02;101316.41;4956039;28;20058;-78
2022/01/14 05:00:22;;;;;;;34.63;7.95;;;;;;;7.38;87.98;101324.91;4972524;28;20126;-78
2022/01/14 05:02:47;;;;;;;49.53;10.32;;;;;;;7.34;88.47;101356.31;4944919;28;20022;-78
2022/01/14 05:05:16;;;;;;;31.60;8.88;;;;;;;7.31;88.18;101318.78;4955476;28;20459;-78
2022/01/14 05:07:43;;;;;;;26.10;6.15;;;;;;;7.28;88.20;101352.66;4945976;28;20098;-78
2022/01/14 05:10:19;;;;;;;40.03;7.75;;;;;;;7.25;88.41;101357.72;4974531;28;20014;-78
2022/01/14 05:12:45;;;;;;;44.42;9.80;;;;;;;7.22;88.74;101366.34;4972300;28;20041;-78
2022/01/14 05:15:11;;;;;;;36.63;6.72;;;;;;;7.18;88.48;101389.56;4971781;28;20046;-79
2022/01/14 05:17:37;;;;;;;32.05;7.00;;;;;;;7.14;88.70;101415.50;4971443;28;20080;-78
2022/01/14 05:20:03;;;;;;;27.40;6.30;;;;;;;7.14;88.95;101361.25;4956554;28;20031;-78
2022/01/14 05:22:28;;;;;;;30.45;6.35;;;;;;;7.13;88.53;101389.47;4957489;28;20077;-78
2022/01/14 05:24:54;;;;;;;29.20;6.30;;;;;;;7.13;88.53;101387.56;4954976;28;20479;-78
2022/01/14 05:27:19;;;;;;;56.15;8.73;;;;;;;7.10;88.02;101394.28;4955149;28;20031;-79
2022/01/14 05:29:45;;;;;;;37.88;6.07;;;;;;;7.09;88.11;101356.53;4954131;28;20054;-78
2022/01/14 05:32:13;;;;;;;26.08;6.32;;;;;;;7.05;87.90;101364.34;4973152;28;20036;-78
2022/01/14 05:34:39;;;;;;;28.60;5.85;;;;;;;7.05;87.32;101391.44;4973487;28;20050;-78
2022/01/14 05:37:05;;;;;;;34.15;6.88;;;;;;;7.07;87.31;101416.44;4949828;28;20022;-78
2022/01/14 05:39:30;;;;;;;31.10;5.07;;;;;;;7.06;87.17;101401.22;4959267;28;20026;-78
2022/01/14 05:41:56;;;;;;;24.85;5.78;;;;;;;7.02;87.06;101375.66;4975652;28;20027;-78
2022/01/14 05:44:23;;;;;;;30.70;6.20;;;;;;;7.03;86.61;101433.41;4973594;28;20046;-78
2022/01/14 05:46:49;;;;;;;26.27;4.72;;;;;;;7.05;86.23;101396.88;4973011;28;20041;-79
2022/01/14 05:49:15;;;;;;;29.20;7.00;;;;;;;7.02;86.41;101413.59;4967912;28;20043;-78
2022/01/14 05:51:40;;;;;;;30.50;7.00;;;;;;;7.00;86.01;101432.00;4972265;28;20027;-78
2022/01/14 05:54:06;;;;;;;21.90;5.40;;;;;;;7.00;86.14;101464.53;4959386;28;20029;-78
2022/01/14 05:56:31;;;;;;;24.50;4.70;;;;;;;6.98;86.42;101431.38;4972559;28;20041;-78
2022/01/14 05:58:56;;;;;;;31.48;5.13;;;;;;;6.95;86.20;101429.16;4974329;28;20080;-78
2022/01/14 06:01:22;;;;;;;26.45;5.00;;;;;;;6.90;86.12;101442.56;4964584;28;20109;-78
2022/01/14 06:03:47;;;;;;;33.42;6.85;;;;;;;6.85;86.42;101428.91;4971458;28;20042;-78
2022/01/14 06:06:12;;;;;;;27.77;5.07;;;;;;;6.80;86.32;101439.63;4971824;28;20439;-79
2022/01/14 06:08:38;;;;;;;30.00;5.25;;;;;;;6.78;86.78;101439.03;4958298;28;20023;-78
2022/01/14 06:11:03;;;;;;;39.17;7.05;;;;;;;6.76;86.49;101457.41;4975298;28;20436;-78
2022/01/14 06:13:29;;;;;;;26.27;4.43;;;;;;;6.76;86.51;101436.53;4975218;28;20030;-79
2022/01/14 06:15:54;;;;;;;33.30;7.45;;;;;;;6.74;86.22;101459.50;4957118;28;20034;-78
2022/01/14 06:18:19;;;;;;;25.05;5.20;;;;;;;6.76;85.90;101449.25;4957744;28;20033;-78
2022/01/14 06:20:46;;;;;;;26.63;5.07;;;;;;;6.72;85.51;101461.66;4952486;28;20377;-78
2022/01/14 06:23:12;;;;;;;24.80;3.72;;;;;;;6.69;85.10;101472.94;4974832;28;20026;-78
2022/01/14 06:25:37;;;;;;;32.47;5.65;;;;;;;6.64;84.66;101460.91;4974951;28;20110;-78
2022/01/14 06:28:03;;;;;;;36.15;6.07;;;;;;;6.61;84.18;101485.75;4973984;28;20085;-78
2022/01/14 06:30:28;;;;;;;21.88;4.35;;;;;;;6.58;84.30;101488.94;4974519;28;20213;-79
2022/01/14 06:32:54;;;;;;;32.38;6.38;;;;;;;6.56;84.20;101472.06;4975927;28;20030;-78
2022/01/14 06:35:20;;;;;;;27.17;6.43;;;;;;;6.53;83.95;101505.03;4973485;28;20388;-79
2022/01/14 06:37:45;;;;;;;33.13;6.78;;;;;;;6.52;84.08;101502.53;4967934;28;20697;-78
2022/01/14 06:40:11;;;;;;;37.75;6.93;;;;;;;6.50;84.04;101507.38;4971937;28;20048;-79
2022/01/14 06:42:36;;;;;;;35.05;5.45;;;;;;;6.43;83.99;101529.13;4952995;28;20479;-78
2022/01/14 06:45:03;;;;;;;36.58;7.45;;;;;;;6.35;84.10;101532.16;4971090;28;20046;-78
2022/01/14 06:47:28;;;;;;;29.50;4.57;;;;;;;6.30;84.05;101529.28;4974550;28;20077;-78
2022/01/14 06:49:54;;;;;;;31.45;5.63;;;;;;;6.25;84.13;101527.28;4957574;28;20050;-78
2022/01/14 06:52:20;;;;;;;26.75;4.50;;;;;;;6.19;84.32;101529.03;4968772;28;20031;-79
2022/01/14 06:54:45;;;;;;;29.83;6.00;;;;;;;6.16;84.07;101523.22;4955090;28;20031;-78
2022/01/14 06:57:10;;;;;;;34.60;6.00;;;;;;;6.15;84.16;101544.03;4973059;28;20031;-78
2022/01/14 06:59:36;;;;;;;23.23;4.38;;;;;;;6.14;83.74;101542.41;4975396;28;20050;-79
2022/01/14 07:02:01;;;;;;;22.02;3.72;;;;;;;6.13;83.31;101543.44;4972374;28;20038;-77
2022/01/14 07:04:27;;;;;;;29.25;4.57;;;;;;;6.13;82.91;101573.22;4972293;28;20042;-78
2022/01/14 07:06:52;;;;;;;16.30;3.15;;;;;;;6.17;82.54;101558.19;4972959;28;20034;-78
2022/01/14 07:09:17;;;;;;;26.30;3.95;;;;;;;6.19;81.74;101577.75;4972764;28;20081;-79
2022/01/14 07:11:47;;;;;;;25.98;4.78;;;;;;;6.22;81.13;101574.59;4953159;28;20118;-79
2022/01/14 07:14:12;;;;;;;23.80;3.78;;;;;;;6.25;80.67;101577.88;4976026;28;20026;-78
2022/01/14 07:16:38;;;;;;;23.58;5.18;;;;;;;6.26;80.39;101582.25;4957030;28;20434;-79
2022/01/14 07:19:03;;;;;;;21.70;4.40;;;;;;;6.28;80.26;101591.00;4955473;28;20034;-79
2022/01/14 07:21:29;;;;;;;21.95;5.28;;;;;;;6.26;79.97;101602.03;4974300;28;20073;-79
2022/01/14 07:23:54;;;;;;;29.85;5.03;;;;;;;6.23;80.08;101610.63;4954819;28;20146;-78
2022/01/14 07:26:20;;;;;;;22.05;4.43;;;;;;;6.19;80.17;101609.41;4958484;28;20076;-78
2022/01/14 07:28:45;;;;;;;21.25;4.03;;;;;;;6.14;80.18;101612.78;4971885;28;20034;-78
2022/01/14 07:31:11;;;;;;;30.05;5.57;;;;;;;6.14;80.28;101615.50;4971386;28;20498;-78
2022/01/14 07:33:36;;;;;;;29.20;4.57;;;;;;;6.16;80.42;101618.78;4978114;28;20061;-77
2022/01/14 07:36:02;;;;;;;18.88;3.75;;;;;;;6.16;80.50;101629.63;4969882;28;20027;-78
2022/01/14 07:38:27;;;;;;;17.55;3.75;;;;;;;6.16;80.76;101626.91;4974617;28;20492;-78
2022/01/14 07:40:53;;;;;;;25.55;5.18;;;;;;;6.15;80.60;101646.94;4973281;28;20037;-78
2022/01/14 07:43:19;;;;;;;29.08;4.95;;;;;;;6.15;80.77;101646.94;4955228;28;20019;-78
2022/01/14 07:45:45;;;;;;;24.35;5.20;;;;;;;6.13;80.33;101649.03;4961832;28;20058;-78
2022/01/14 07:48:10;;;;;;;23.83;4.97;;;;;;;6.12;80.49;101660.09;4971330;28;20054;-78
2022/01/14 07:50:36;;;;;;;21.85;5.25;;;;;;;6.09;80.27;101644.28;4971546;28;20031;-78
2022/01/14 07:53:01;;;;;;;22.90;5.30;;;;;;;6.09;80.31;101652.41;4972678;28;20041;-78
2022/01/14 07:55:26;;;;;;;28.30;6.28;;;;;;;6.06;80.22;101645.56;4948965;28;20038;-78
2022/01/14 07:57:52;;;;;;;25.90;4.78;;;;;;;6.04;80.31;101644.13;4953268;28;20035;-78
2022/01/14 08:00:17;;;;;;;25.40;4.68;;;;;;;6.02;80.33;101633.50;4951818;28;20035;-78
2022/01/14 08:02:43;;;;;;;25.70;4.47;;;;;;;6.04;80.54;101655.78;4951787;28;20093;-78
2022/01/14 08:05:08;;;;;;;19.20;4.18;;;;;;;6.03;79.94;101683.06;4971982;28;20049;-78
2022/01/14 08:07:36;;;;;;;24.27;5.72;;;;;;;6.01;80.23;101694.13;4960179;28;20207;-78
2022/01/14 08:10:01;;;;;;;25.45;5.13;;;;;;;5.98;80.22;101698.09;4961877;28;20098;-78
2022/01/14 08:12:27;;;;;;;18.40;3.20;;;;;;;5.96;79.54;101710.19;4964915;28;20043;-78
2022/01/14 08:14:52;;;;;;;19.33;3.75;;;;;;;5.95;79.25;101714.78;4966077;28;20030;-78
2022/01/14 08:17:20;;;;;;;17.48;3.45;;;;;;;5.95;79.11;101727.50;4969937;28;20477;-78
2022/01/14 08:19:45;;;;;;;21.98;3.50;;;;;;;5.96;78.53;101734.56;4970372;28;20054;-77
2022/01/14 08:22:11;;;;;;;19.00;3.55;;;;;;;5.95;78.43;101731.03;4938664;28;20027;-78
2022/01/14 08:24:36;;;;;;;23.75;3.72;;;;;;;5.96;77.98;101734.56;4953980;28;20031;-77
2022/01/14 08:27:02;;;;;;;17.00;3.60;;;;;;;5.94;78.31;101731.22;4939302;28;20027;-77
2022/01/14 08:29:28;;;;;;;16.70;4.13;;;;;;;5.94;78.02;101742.06;4948893;28;20057;-78
2022/01/14 08:31:54;;;;;;;25.40;5.20;;;;;;;5.95;78.31;101744.56;4951610;28;20026;-78
2022/01/14 08:34:21;;;;;;;25.05;3.85;;;;;;;5.95;78.13;101743.75;4955090;28;20049;-77
2022/01/14 08:36:47;;;;;;;30.35;4.70;;;;;;;5.95;78.00;101747.28;4969322;28;20026;-77
2022/01/14 08:39:13;;;;;;;16.40;3.40;;;;;;;5.95;78.05;101749.97;4936756;28;20031;-78
2022/01/14 08:41:38;;;;;;;14.65;2.85;;;;;;;6.00;77.02;101760.13;4963807;28;20038;-77
2022/01/14 08:44:04;;;;;;;5.68;1.48;;;;;;;6.05;75.73;101781.13;4953055;28;20071;-77
2022/01/14 08:46:29;;;;;;;9.90;1.73;;;;;;;6.07;73.84;101788.00;4969023;28;20042;-78
2022/01/14 08:48:56;;;;;;;7.18;2.05;;;;;;;6.11;72.32;101789.22;4970453;28;20083;-77
2022/01/14 08:51:22;;;;;;;14.85;2.40;;;;;;;6.13;70.85;101795.22;4954751;28;20498;-77
2022/01/14 08:53:47;;;;;;;7.13;1.25;;;;;;;6.12;70.07;101809.81;4967066;28;20462;-78
2022/01/14 08:56:13;;;;;;;14.43;2.20;;;;;;;6.09;70.11;101814.84;4950613;28;20026;-79
2022/01/14 08:58:39;;;;;;;8.45;2.47;;;;;;;6.07;70.31;101823.19;4926439;28;20049;-78
2022/01/14 09:01:04;;;;;;;14.90;2.00;;;;;;;6.07;69.49;101817.78;4965635;28;20085;-78
2022/01/14 09:03:30;;;;;;;11.13;2.72;;;;;;;6.07;69.97;101801.53;4970124;28;20023;-80
2022/01/14 09:05:55;;;;;;;10.25;1.65;;;;;;;6.05;69.61;101825.28;4946831;28;20042;-77
2022/01/14 09:08:21;;;;;;;19.80;2.42;;;;;;;6.05;69.47;101829.88;4970574;28;20023;-79
2022/01/14 09:10:46;;;;;;;11.38;2.10;;;;;;;6.04;68.84;101829.03;4952230;28;20023;-79
2022/01/14 09:13:12;;;;;;;10.32;2.55;;;;;;;6.04;68.46;101834.44;4968372;28;20045;-79
2022/01/14 09:15:37;;;;;;;10.48;3.13;;;;;;;6.07;67.89;101833.19;4951546;28;20037;-80
2022/01/14 09:18:03;;;;;;;15.07;2.70;;;;;;;6.07;67.99;101844.00;4952071;28;20027;-81
2022/01/14 09:20:28;;;;;;;12.07;2.30;;;;;;;6.07;68.45;101842.13;4968759;28;20038;-79
2022/01/14 09:22:57;;;;;;;18.70;2.75;;;;;;;6.06;68.39;101859.44;4955554;28;20022;-76
2022/01/14 09:25:22;;;;;;;14.23;2.47;;;;;;;6.05;68.55;101871.28;4949725;28;20101;-75
2022/01/14 09:27:50;;;;;;;13.48;2.38;;;;;;;6.04;68.93;101866.94;4967826;28;20058;-78
2022/01/14 09:30:15;;;;;;;15.48;2.45;;;;;;;6.02;69.11;101885.25;4958482;28;20109;-77
2022/01/14 09:32:41;;;;;;;11.50;2.45;;;;;;;6.02;69.24;101887.97;4960523;28;20030;-82
2022/01/14 09:35:08;;;;;;;16.80;2.70;;;;;;;6.00;70.11;101884.66;4932970;28;20376;-78
2022/01/14 09:37:33;;;;;;;14.48;3.03;;;;;;;6.02;70.19;101881.72;4973082;28;20097;-79
2022/01/14 09:39:58;;;;;;;11.55;2.67;;;;;;;6.02;70.59;101895.28;4972024;28;20564;-78
2022/01/14 09:42:24;;;;;;;12.93;2.55;;;;;;;6.02;70.87;101906.09;4942001;28;20025;-76
2022/01/14 09:44:49;;;;;;;16.92;3.20;;;;;;;6.06;71.17;101901.94;4969808;28;20042;-78
2022/01/14 09:47:18;;;;;;;18.55;3.10;;;;;;;6.06;71.11;101908.16;4963142;28;20023;-78
2022/01/14 09:49:45;;;;;;;12.95;2.22;;;;;;;6.07;71.56;101907.13;4965536;28;20043;-79
2022/01/14 09:52:13;;;;;;;23.60;3.58;;;;;;;6.06;71.40;101908.16;4927863;28;20046;-80
2022/01/14 09:54:43;;;;;;;12.65;3.30;;;;;;;6.09;71.14;101909.63;4949217;28;20031;-77
2022/01/14 09:57:11;;;;;;;14.88;2.05;;;;;;;6.11;70.71;101905.66;4954974;28;20392;-80
2022/01/14 09:59:36;;;;;;;10.18;2.33;;;;;;;6.16;70.21;101908.50;4949292;28;20595;-80
2022/01/14 10:02:01;;;;;;;9.98;1.88;;;;;;;6.19;69.66;101913.53;4962456;28;20035;-79
2022/01/14 10:04:27;;;;;;;10.05;2.30;;;;;;;6.22;69.23;101934.75;4966488;28;20038;-79
2022/01/14 10:06:56;;;;;;;16.90;3.15;;;;;;;6.24;69.17;101939.94;4967170;28;20154;-80
2022/01/14 10:09:25;;;;;;;11.45;2.10;;;;;;;6.28;68.88;101956.59;4951057;28;20014;-79
2022/01/14 10:12:11;;;;;;;13.25;2.28;;;;;;;6.26;69.10;101940.53;4952378;28;20062;-79
2022/01/14 10:14:38;;;;;;;13.15;3.13;;;;;;;6.26;68.95;101947.84;4968657;28;20022;-79
2022/01/14 10:17:05;;;;;;;14.13;2.55;;;;;;;6.23;69.21;101940.97;4969372;28;20035;-79
2022/01/14 10:19:42;;;;;;;10.13;3.13;;;;;;;6.23;68.84;101960.75;4951837;28;20054;-80
2022/01/14 10:22:27;;;;;;;14.32;2.50;;;;;;;6.25;67.82;101948.88;4953633;28;20030;-80
2022/01/14 10:24:57;;;;;;;9.98;2.15;;;;;;;6.26;67.24;101950.56;4962920;28;20037;-78
2022/01/14 10:27:29;;;;;;;12.93;2.63;;;;;;;6.26;65.99;101961.38;4962464;28;20086;-79
2022/01/14 10:29:55;;;;;;;8.80;2.22;;;;;;;6.28;65.30;101965.53;4954612;28;20023;-79
2022/01/14 10:32:20;;;;;;;11.77;1.95;;;;;;;6.30;64.81;101978.84;4957780;28;20031;-79
2022/01/14 10:34:47;;;;;;;6.40;1.70;;;;;;;6.30;63.81;101970.72;4932892;29;20416;-76
2022/01/14 10:37:14;;;;;;;7.10;1.38;;;;;;;6.32;63.06;101976.75;4950268;28;20487;-79
2022/01/14 10:39:50;;;;;;;10.57;2.80;;;;;;;6.31;62.56;101975.13;4975066;28;20039;-80
2022/01/14 10:42:22;;;;;;;9.05;2.03;;;;;;;6.31;61.90;101967.81;4972981;28;20379;-81
2022/01/14 10:44:48;;;;;;;13.02;2.90;;;;;;;6.34;62.16;101991.75;4958809;28;20129;-80
2022/01/14 10:47:15;;;;;;;8.80;1.88;;;;;;;6.32;62.40;101977.59;4955367;29;20476;-81
2022/01/14 10:49:42;;;;;;;12.85;2.25;;;;;;;6.31;61.76;101991.38;4953891;28;20053;-79
2022/01/14 10:52:16;;;;;;;9.27;1.80;;;;;;;6.32;60.53;101966.75;4974750;28;20480;-81
2022/01/14 10:54:45;;;;;;;7.40;1.80;;;;;;;6.32;60.78;101990.31;4957444;28;20464;-80
2022/01/14 10:57:16;;;;;;;8.63;1.88;;;;;;;6.32;60.69;102003.84;4942020;28;20360;-80
2022/01/14 10:59:41;;;;;;;8.27;2.10;;;;;;;6.33;60.65;102009.06;4973437;28;20054;-81
2022/01/14 11:02:35;;;;;;;18.42;2.95;;;;;;;6.33;60.73;102005.50;4971704;28;20412;-80
2022/01/14 11:05:11;;;;;;;8.90;2.40;;;;;;;6.31;61.14;101999.50;4970907;28;20022;-80
2022/01/14 11:07:37;;;;;;;13.43;2.67;;;;;;;6.31;61.07;101999.50;4938123;28;20033;-80
2022/01/14 11:10:33;;;;;;;10.60;2.60;;;;;;;6.31;60.66;102010.31;4954528;28;20035;-76
2022/01/14 11:12:58;;;;;;;14.73;2.20;;;;;;;6.30;61.24;102027.59;4954039;28;20105;-82
2022/01/14 11:15:25;;;;;;;9.73;2.30;;;;;;;6.30;61.08;102014.06;4955986;28;20023;-80
2022/01/14 11:17:52;;;;;;;13.63;2.33;;;;;;;6.29;61.19;102028.66;4936984;28;20446;-81
2022/01/14 11:20:26;;;;;;;9.18;2.17;;;;;;;6.28;61.00;102027.84;4959001;28;20049;-80
2022/01/14 11:25:49;;;;;;;11.32;2.45;;;;;;;6.30;59.67;102012.22;4965907;28;20595;-79
2022/01/14 11:28:17;;;;;;;12.05;2.40;;;;;;;6.32;59.76;102030.94;4971291;28;20103;-82
2022/01/14 11:30:43;;;;;;;13.02;2.85;;;;;;;6.32;59.59;102037.19;4960583;28;20073;-80
2022/01/14 11:33:08;;;;;;;14.88;3.17;;;;;;;6.34;59.58;102023.44;4969408;28;20049;-85
2022/01/14 11:35:35;;;;;;;14.32;2.13;;;;;;;6.33;60.15;102021.75;4950328;28;20027;-76
2022/01/14 11:38:01;;;;;;;12.38;2.60;;;;;;;6.32;60.03;102020.94;4955096;28;20033;-76
2022/01/14 11:40:26;;;;;;;13.52;2.70;;;;;;;6.33;59.87;102044.28;4970762;28;20030;-75
2022/01/14 11:43:01;;;;;;;7.68;1.80;;;;;;;6.34;59.46;102034.28;4970781;28;20042;-75
2022/01/14 11:45:39;;;;;;;8.82;2.85;;;;;;;6.34;59.43;102040.50;4970623;28;20050;-80
2022/01/14 11:48:04;;;;;;;16.48;2.22;;;;;;;6.35;59.85;102047.59;4962542;28;20114;-82
2022/01/14 11:50:29;;;;;;;11.40;2.05;;;;;;;6.36;59.40;102048.44;4952627;28;20027;-85